sensor_id;sensor_type;location;lat;lon;timestamp;temperature;humidity
18741;DHT22;9499;52.472;13.448;2022-09-27T00:00:14;13.00;99.90
18741;DHT22;9499;52.472;13.448;2022-09-27T00:02:41;13.00;99.90
18741;DHT22;9499;52.472;13.448;2022-09-27T00:05:07;13.00;99.90
18741;DHT22;9499;52.472;13.448;2022-09-27T00:07:35;13.00;99.90
18741;DHT22;9499;52.472;13.448;2022-09-27T00:10:02;13.00;99.90
18741;DHT22;9499;52.472;13.448;2022-09-27T00:12:29;13.00;99.90
18741;DHT22;9499;52.472;13.448;2022-09-27T00:14:55;13.00;99.90
18741;DHT22;9499;52.472;13.448;2022-09-27T00:17:22;13.00;99.90
18741;DHT22;9499;52.472;13.448;2022-09-27T00:19:48;13.00;99.90
18741;DHT22;9499;52.472;13.448;2022-09-27T00:22:15;13.00;99.90
18741;DHT22;9499;52.472;13.448;2022-09-27T00:24:42;13.00;99.90
18741;DHT22;9499;52.472;13.448;2022-09-27T00:27:09;13.00;99.90
18741;DHT22;9499;52.472;13.448;2022-09-27T00:29:36;13.00;99.90
18741;DHT22;9499;52.472;13.448;2022-09-27T00:32:03;13.00;99.90
18741;DHT22;9499;52.472;13.448;2022-09-27T00:34:29;13.00;99.90
18741;DHT22;9499;52.472;13.448;2022-09-27T00:36:56;13.00;99.90
18741;DHT22;9499;52.472;13.448;2022-09-27T00:39:23;13.00;99.90
18741;DHT22;9499;52.472;13.448;2022-09-27T00:41:51;13.00;99.90
18741;DHT22;9499;52.472;13.448;2022-09-27T00:47:26;12.90;99.90
18741;DHT22;9499;52.472;13.448;2022-09-27T00:49:56;12.90;99.90
18741;DHT22;9499;52.472;13.448;2022-09-27T00:52:27;13.00;99.90
18741;DHT22;9499;52.472;13.448;2022-09-27T00:54:58;12.90;99.90
18741;DHT22;9499;52.472;13.448;2022-09-27T00:57:28;12.90;99.90
18741;DHT22;9499;52.472;13.448;2022-09-27T00:59:59;12.90;99.90
18741;DHT22;9499;52.472;13.448;2022-09-27T01:02:27;12.90;99.90
18741;DHT22;9499;52.472;13.448;2022-09-27T01:04:54;12.90;99.90
18741;DHT22;9499;52.472;13.448;2022-09-27T01:07:22;12.90;99.90
18741;DHT22;9499;52.472;13.448;2022-09-27T01:09:48;12.90;99.90
18741;DHT22;9499;52.472;13.448;2022-09-27T01:12:20;12.90;99.90
18741;DHT22;9499;52.472;13.448;2022-09-27T01:15:00;12.90;99.90
18741;DHT22;9499;52.472;13.448;2022-09-27T01:17:39;12.80;99.90
18741;DHT22;9499;52.472;13.448;2022-09-27T01:20:35;12.80;99.90
18741;DHT22;9499;52.472;13.448;2022-09-27T01:23:34;12.90;99.90
18741;DHT22;9499;52.472;13.448;2022-09-27T01:26:12;12.80;99.90
18741;DHT22;9499;52.472;13.448;2022-09-27T01:28:50;12.80;99.90
18741;DHT22;9499;52.472;13.448;2022-09-27T01:31:24;12.80;99.90
18741;DHT22;9499;52.472;13.448;2022-09-27T01:33:58;12.70;99.90
18741;DHT22;9499;52.472;13.448;2022-09-27T01:36:33;12.70;99.90
18741;DHT22;9499;52.472;13.448;2022-09-27T01:39:14;12.70;99.90
18741;DHT22;9499;52.472;13.448;2022-09-27T01:41:48;12.70;99.90
18741;DHT22;9499;52.472;13.448;2022-09-27T01:44:26;12.70;99.90
18741;DHT22;9499;52.472;13.448;2022-09-27T01:46:58;12.80;99.90
18741;DHT22;9499;52.472;13.448;2022-09-27T01:49:31;12.80;99.90
18741;DHT22;9499;52.472;13.448;2022-09-27T01:52:02;12.80;99.90
18741;DHT22;9499;52.472;13.448;2022-09-27T01:54:34;12.80;99.90
18741;DHT22;9499;52.472;13.448;2022-09-27T01:57:05;12.80;99.90
18741;DHT22;9499;52.472;13.448;2022-09-27T01:59:36;12.80;99.90
18741;DHT22;9499;52.472;13.448;2022-09-27T02:02:08;12.80;99.90
18741;DHT22;9499;52.472;13.448;2022-09-27T02:04:37;12.80;99.90
18741;DHT22;9499;52.472;13.448;2022-09-27T02:07:10;12.80;99.90
18741;DHT22;9499;52.472;13.448;2022-09-27T02:09:41;12.80;99.90
18741;DHT22;9499;52.472;13.448;2022-09-27T02:12:13;12.90;99.90
18741;DHT22;9499;52.472;13.448;2022-09-27T02:14:43;12.90;99.90
18741;DHT22;9499;52.472;13.448;2022-09-27T02:17:21;12.90;99.90
18741;DHT22;9499;52.472;13.448;2022-09-27T02:19:53;12.90;99.90
18741;DHT22;9499;52.472;13.448;2022-09-27T02:22:25;12.90;99.90
18741;DHT22;9499;52.472;13.448;2022-09-27T02:24:58;12.90;99.90
18741;DHT22;9499;52.472;13.448;2022-09-27T02:27:28;12.90;99.90
18741;DHT22;9499;52.472;13.448;2022-09-27T02:30:00;12.90;99.90
18741;DHT22;9499;52.472;13.448;2022-09-27T02:32:29;13.00;99.90
18741;DHT22;9499;52.472;13.448;2022-09-27T02:34:59;13.00;99.90
18741;DHT22;9499;52.472;13.448;2022-09-27T02:37:27;13.00;99.90
18741;DHT22;9499;52.472;13.448;2022-09-27T02:39:54;13.00;99.90
18741;DHT22;9499;52.472;13.448;2022-09-27T02:42:20;13.00;99.90
18741;DHT22;9499;52.472;13.448;2022-09-27T02:44:47;13.00;99.90
18741;DHT22;9499;52.472;13.448;2022-09-27T02:47:31;13.00;99.90
18741;DHT22;9499;52.472;13.448;2022-09-27T02:50:13;13.10;99.90
18741;DHT22;9499;52.472;13.448;2022-09-27T02:52:49;13.10;99.90
18741;DHT22;9499;52.472;13.448;2022-09-27T02:55:20;13.10;99.90
18741;DHT22;9499;52.472;13.448;2022-09-27T02:57:58;13.10;99.90
18741;DHT22;9499;52.472;13.448;2022-09-27T03:00:35;13.10;99.90
18741;DHT22;9499;52.472;13.448;2022-09-27T03:03:07;13.10;99.90
18741;DHT22;9499;52.472;13.448;2022-09-27T03:05:38;13.10;99.90
18741;DHT22;9499;52.472;13.448;2022-09-27T03:08:06;13.00;99.90
18741;DHT22;9499;52.472;13.448;2022-09-27T03:10:33;13.10;99.90
18741;DHT22;9499;52.472;13.448;2022-09-27T03:12:59;13.00;99.90
18741;DHT22;9499;52.472;13.448;2022-09-27T03:15:26;13.10;99.90
18741;DHT22;9499;52.472;13.448;2022-09-27T03:17:53;13.10;99.90
18741;DHT22;9499;52.472;13.448;2022-09-27T03:20:21;13.10;99.90
18741;DHT22;9499;52.472;13.448;2022-09-27T03:22:47;13.10;99.90
18741;DHT22;9499;52.472;13.448;2022-09-27T03:25:14;13.10;99.90
18741;DHT22;9499;52.472;13.448;2022-09-27T03:27:40;13.00;99.90
18741;DHT22;9499;52.472;13.448;2022-09-27T03:30:08;13.10;99.90
18741;DHT22;9499;52.472;13.448;2022-09-27T03:32:35;13.00;99.90
18741;DHT22;9499;52.472;13.448;2022-09-27T03:35:02;13.00;99.90
18741;DHT22;9499;52.472;13.448;2022-09-27T03:37:29;13.10;99.90
18741;DHT22;9499;52.472;13.448;2022-09-27T03:39:56;13.10;99.90
18741;DHT22;9499;52.472;13.448;2022-09-27T03:42:23;13.00;99.90
18741;DHT22;9499;52.472;13.448;2022-09-27T03:44:49;13.00;99.90
18741;DHT22;9499;52.472;13.448;2022-09-27T03:47:16;13.00;99.90
18741;DHT22;9499;52.472;13.448;2022-09-27T03:49:42;13.00;99.90
18741;DHT22;9499;52.472;13.448;2022-09-27T03:52:09;12.90;99.90
18741;DHT22;9499;52.472;13.448;2022-09-27T03:54:37;12.90;99.90
18741;DHT22;9499;52.472;13.448;2022-09-27T03:57:04;12.80;99.90
18741;DHT22;9499;52.472;13.448;2022-09-27T03:59:30;12.90;99.90
18741;DHT22;9499;52.472;13.448;2022-09-27T04:01:57;12.80;99.90
18741;DHT22;9499;52.472;13.448;2022-09-27T04:04:23;12.80;99.90
18741;DHT22;9499;52.472;13.448;2022-09-27T04:06:49;12.80;99.90
18741;DHT22;9499;52.472;13.448;2022-09-27T04:09:16;12.80;99.90
18741;DHT22;9499;52.472;13.448;2022-09-27T04:11:44;12.80;99.90
18741;DHT22;9499;52.472;13.448;2022-09-27T04:14:10;12.70;99.90
18741;DHT22;9499;52.472;13.448;2022-09-27T04:16:38;12.70;99.90
18741;DHT22;9499;52.472;13.448;2022-09-27T04:19:05;12.70;99.90
18741;DHT22;9499;52.472;13.448;2022-09-27T04:21:32;12.70;99.90
18741;DHT22;9499;52.472;13.448;2022-09-27T04:23:59;12.60;99.90
18741;DHT22;9499;52.472;13.448;2022-09-27T04:26:26;12.60;99.90
18741;DHT22;9499;52.472;13.448;2022-09-27T04:28:54;12.60;99.90
18741;DHT22;9499;52.472;13.448;2022-09-27T04:31:21;12.50;99.90
18741;DHT22;9499;52.472;13.448;2022-09-27T04:33:47;12.50;99.90
18741;DHT22;9499;52.472;13.448;2022-09-27T04:36:17;12.50;99.90
18741;DHT22;9499;52.472;13.448;2022-09-27T04:38:52;12.50;99.90
18741;DHT22;9499;52.472;13.448;2022-09-27T04:41:19;12.50;99.90
18741;DHT22;9499;52.472;13.448;2022-09-27T04:43:47;12.40;99.90
18741;DHT22;9499;52.472;13.448;2022-09-27T04:46:15;12.40;99.90
18741;DHT22;9499;52.472;13.448;2022-09-27T04:48:42;12.40;99.90
18741;DHT22;9499;52.472;13.448;2022-09-27T04:51:09;12.40;99.90
18741;DHT22;9499;52.472;13.448;2022-09-27T04:53:36;12.40;99.90
18741;DHT22;9499;52.472;13.448;2022-09-27T04:56:03;12.30;99.90
18741;DHT22;9499;52.472;13.448;2022-09-27T04:58:31;12.30;99.90
18741;DHT22;9499;52.472;13.448;2022-09-27T05:00:59;12.20;99.90
18741;DHT22;9499;52.472;13.448;2022-09-27T05:03:27;12.20;99.90
18741;DHT22;9499;52.472;13.448;2022-09-27T05:05:54;12.10;99.90
18741;DHT22;9499;52.472;13.448;2022-09-27T05:08:20;12.10;99.90
18741;DHT22;9499;52.472;13.448;2022-09-27T05:10:47;12.10;99.90
18741;DHT22;9499;52.472;13.448;2022-09-27T05:13:14;12.10;99.90
18741;DHT22;9499;52.472;13.448;2022-09-27T05:15:41;12.10;99.90
18741;DHT22;9499;52.472;13.448;2022-09-27T05:18:07;12.10;99.90
18741;DHT22;9499;52.472;13.448;2022-09-27T05:20:36;12.10;99.90
18741;DHT22;9499;52.472;13.448;2022-09-27T05:23:03;12.10;99.90
18741;DHT22;9499;52.472;13.448;2022-09-27T05:25:30;12.10;99.90
18741;DHT22;9499;52.472;13.448;2022-09-27T05:27:57;12.10;99.90
18741;DHT22;9499;52.472;13.448;2022-09-27T05:30:23;12.00;99.90
18741;DHT22;9499;52.472;13.448;2022-09-27T05:32:50;11.90;99.90
18741;DHT22;9499;52.472;13.448;2022-09-27T05:35:18;11.90;99.90
18741;DHT22;9499;52.472;13.448;2022-09-27T05:37:52;11.90;99.90
18741;DHT22;9499;52.472;13.448;2022-09-27T05:40:18;11.80;99.90
18741;DHT22;9499;52.472;13.448;2022-09-27T05:42:47;11.80;99.90
18741;DHT22;9499;52.472;13.448;2022-09-27T05:45:14;11.80;99.90
18741;DHT22;9499;52.472;13.448;2022-09-27T05:47:41;11.70;99.90
18741;DHT22;9499;52.472;13.448;2022-09-27T05:50:08;11.60;99.90
18741;DHT22;9499;52.472;13.448;2022-09-27T05:52:34;11.60;99.90
18741;DHT22;9499;52.472;13.448;2022-09-27T05:55:03;11.60;99.90
18741;DHT22;9499;52.472;13.448;2022-09-27T05:57:29;11.60;99.90
18741;DHT22;9499;52.472;13.448;2022-09-27T05:59:56;11.60;99.90
18741;DHT22;9499;52.472;13.448;2022-09-27T06:02:22;11.60;99.90
18741;DHT22;9499;52.472;13.448;2022-09-27T06:04:49;11.60;99.90
18741;DHT22;9499;52.472;13.448;2022-09-27T06:07:16;11.60;99.90
18741;DHT22;9499;52.472;13.448;2022-09-27T06:09:42;11.60;99.90
18741;DHT22;9499;52.472;13.448;2022-09-27T06:12:10;11.50;99.90
18741;DHT22;9499;52.472;13.448;2022-09-27T06:14:37;11.50;99.90
18741;DHT22;9499;52.472;13.448;2022-09-27T06:17:04;11.50;99.90
18741;DHT22;9499;52.472;13.448;2022-09-27T06:19:31;11.50;99.90
18741;DHT22;9499;52.472;13.448;2022-09-27T06:21:57;11.50;99.90
18741;DHT22;9499;52.472;13.448;2022-09-27T06:24:24;11.50;99.90
18741;DHT22;9499;52.472;13.448;2022-09-27T06:26:50;11.50;99.90
18741;DHT22;9499;52.472;13.448;2022-09-27T06:29:18;11.50;99.90
18741;DHT22;9499;52.472;13.448;2022-09-27T06:31:47;11.50;99.90
18741;DHT22;9499;52.472;13.448;2022-09-27T06:34:17;11.50;99.90
18741;DHT22;9499;52.472;13.448;2022-09-27T06:36:44;11.50;99.90
18741;DHT22;9499;52.472;13.448;2022-09-27T06:39:11;11.50;99.90
18741;DHT22;9499;52.472;13.448;2022-09-27T06:41:37;11.50;99.90
18741;DHT22;9499;52.472;13.448;2022-09-27T06:44:04;11.60;99.90
18741;DHT22;9499;52.472;13.448;2022-09-27T06:46:32;11.60;99.90
18741;DHT22;9499;52.472;13.448;2022-09-27T06:48:58;11.60;99.90
18741;DHT22;9499;52.472;13.448;2022-09-27T06:51:25;11.60;99.90
18741;DHT22;9499;52.472;13.448;2022-09-27T06:53:51;11.60;99.90
18741;DHT22;9499;52.472;13.448;2022-09-27T06:56:18;11.60;99.90
18741;DHT22;9499;52.472;13.448;2022-09-27T06:58:44;11.60;99.90
18741;DHT22;9499;52.472;13.448;2022-09-27T07:01:29;11.60;99.90
18741;DHT22;9499;52.472;13.448;2022-09-27T07:03:56;11.60;99.90
18741;DHT22;9499;52.472;13.448;2022-09-27T07:06:24;11.60;99.90
18741;DHT22;9499;52.472;13.448;2022-09-27T07:08:51;11.60;99.90
18741;DHT22;9499;52.472;13.448;2022-09-27T07:11:19;11.60;99.90
18741;DHT22;9499;52.472;13.448;2022-09-27T07:13:46;11.60;99.90
18741;DHT22;9499;52.472;13.448;2022-09-27T07:16:14;11.60;99.90
18741;DHT22;9499;52.472;13.448;2022-09-27T07:18:41;11.60;99.90
18741;DHT22;9499;52.472;13.448;2022-09-27T07:21:09;11.60;99.90
18741;DHT22;9499;52.472;13.448;2022-09-27T07:23:36;11.60;99.90
18741;DHT22;9499;52.472;13.448;2022-09-27T07:26:04;11.60;99.90
18741;DHT22;9499;52.472;13.448;2022-09-27T07:28:33;11.60;99.90
18741;DHT22;9499;52.472;13.448;2022-09-27T07:31:00;11.60;99.90
18741;DHT22;9499;52.472;13.448;2022-09-27T07:33:27;11.70;99.90
18741;DHT22;9499;52.472;13.448;2022-09-27T07:35:54;11.60;99.90
18741;DHT22;9499;52.472;13.448;2022-09-27T07:38:22;11.60;99.90
18741;DHT22;9499;52.472;13.448;2022-09-27T07:40:48;11.60;99.90
18741;DHT22;9499;52.472;13.448;2022-09-27T07:43:15;11.60;99.90
18741;DHT22;9499;52.472;13.448;2022-09-27T07:45:42;11.60;99.90
18741;DHT22;9499;52.472;13.448;2022-09-27T07:48:12;11.70;99.90
18741;DHT22;9499;52.472;13.448;2022-09-27T07:50:39;11.70;99.90
18741;DHT22;9499;52.472;13.448;2022-09-27T07:53:06;11.70;99.90
18741;DHT22;9499;52.472;13.448;2022-09-27T07:55:38;11.70;99.90
18741;DHT22;9499;52.472;13.448;2022-09-27T07:58:06;11.70;99.90
18741;DHT22;9499;52.472;13.448;2022-09-27T08:00:33;11.80;99.90
18741;DHT22;9499;52.472;13.448;2022-09-27T08:03:03;11.70;99.90
18741;DHT22;9499;52.472;13.448;2022-09-27T08:05:31;11.70;99.90
18741;DHT22;9499;52.472;13.448;2022-09-27T08:07:59;11.80;99.90
18741;DHT22;9499;52.472;13.448;2022-09-27T08:10:25;11.70;99.90
18741;DHT22;9499;52.472;13.448;2022-09-27T08:12:57;11.70;99.90
18741;DHT22;9499;52.472;13.448;2022-09-27T08:15:24;11.80;99.90
18741;DHT22;9499;52.472;13.448;2022-09-27T08:17:53;11.80;99.90
18741;DHT22;9499;52.472;13.448;2022-09-27T08:20:19;11.70;99.90
18741;DHT22;9499;52.472;13.448;2022-09-27T08:22:46;11.80;99.90
18741;DHT22;9499;52.472;13.448;2022-09-27T08:25:12;11.80;99.90
18741;DHT22;9499;52.472;13.448;2022-09-27T08:27:39;11.80;99.90
18741;DHT22;9499;52.472;13.448;2022-09-27T08:30:08;11.80;99.90
18741;DHT22;9499;52.472;13.448;2022-09-27T08:32:34;11.80;99.90
18741;DHT22;9499;52.472;13.448;2022-09-27T08:35:03;11.80;99.90
18741;DHT22;9499;52.472;13.448;2022-09-27T08:37:31;11.90;99.90
18741;DHT22;9499;52.472;13.448;2022-09-27T08:39:58;11.90;99.90
18741;DHT22;9499;52.472;13.448;2022-09-27T08:42:30;11.80;99.90
18741;DHT22;9499;52.472;13.448;2022-09-27T08:45:02;11.80;99.90
18741;DHT22;9499;52.472;13.448;2022-09-27T08:47:34;11.90;99.90
18741;DHT22;9499;52.472;13.448;2022-09-27T08:50:09;11.90;99.90
18741;DHT22;9499;52.472;13.448;2022-09-27T08:52:42;12.00;99.90
18741;DHT22;9499;52.472;13.448;2022-09-27T08:55:29;12.00;99.90
18741;DHT22;9499;52.472;13.448;2022-09-27T08:57:57;12.00;99.90
18741;DHT22;9499;52.472;13.448;2022-09-27T09:00:24;12.00;99.90
18741;DHT22;9499;52.472;13.448;2022-09-27T09:02:54;12.00;99.90
18741;DHT22;9499;52.472;13.448;2022-09-27T09:05:28;12.00;99.90
18741;DHT22;9499;52.472;13.448;2022-09-27T09:08:09;12.10;99.90
18741;DHT22;9499;52.472;13.448;2022-09-27T09:10:48;12.00;99.90
18741;DHT22;9499;52.472;13.448;2022-09-27T09:13:43;12.10;99.90
18741;DHT22;9499;52.472;13.448;2022-09-27T09:16:20;12.10;99.90
18741;DHT22;9499;52.472;13.448;2022-09-27T09:19:06;12.10;99.90
18741;DHT22;9499;52.472;13.448;2022-09-27T09:21:48;12.10;99.90
18741;DHT22;9499;52.472;13.448;2022-09-27T09:24:28;12.20;99.90
18741;DHT22;9499;52.472;13.448;2022-09-27T09:27:04;12.20;99.90
18741;DHT22;9499;52.472;13.448;2022-09-27T09:29:46;12.30;99.90
18741;DHT22;9499;52.472;13.448;2022-09-27T09:32:24;12.30;99.90
18741;DHT22;9499;52.472;13.448;2022-09-27T09:34:59;12.40;99.90
18741;DHT22;9499;52.472;13.448;2022-09-27T09:37:34;12.40;99.90
18741;DHT22;9499;52.472;13.448;2022-09-27T09:40:05;12.40;99.90
18741;DHT22;9499;52.472;13.448;2022-09-27T09:42:38;12.50;99.90
18741;DHT22;9499;52.472;13.448;2022-09-27T09:45:15;12.50;99.90
18741;DHT22;9499;52.472;13.448;2022-09-27T09:47:46;12.50;99.90
18741;DHT22;9499;52.472;13.448;2022-09-27T09:50:16;12.60;99.90
18741;DHT22;9499;52.472;13.448;2022-09-27T09:52:46;12.50;99.90
18741;DHT22;9499;52.472;13.448;2022-09-27T09:55:18;12.60;99.90
18741;DHT22;9499;52.472;13.448;2022-09-27T09:57:53;12.60;99.90
18741;DHT22;9499;52.472;13.448;2022-09-27T10:00:21;12.60;99.90
18741;DHT22;9499;52.472;13.448;2022-09-27T10:02:49;12.60;99.90
18741;DHT22;9499;52.472;13.448;2022-09-27T10:05:20;12.70;99.90
18741;DHT22;9499;52.472;13.448;2022-09-27T10:07:47;12.70;99.90
18741;DHT22;9499;52.472;13.448;2022-09-27T10:10:16;12.80;99.90
18741;DHT22;9499;52.472;13.448;2022-09-27T10:12:44;12.80;99.90
18741;DHT22;9499;52.472;13.448;2022-09-27T10:15:15;12.80;99.90
18741;DHT22;9499;52.472;13.448;2022-09-27T10:17:45;12.80;99.90
18741;DHT22;9499;52.472;13.448;2022-09-27T10:20:23;12.90;99.90
18741;DHT22;9499;52.472;13.448;2022-09-27T10:22:53;13.00;99.90
18741;DHT22;9499;52.472;13.448;2022-09-27T10:25:21;13.00;99.90
18741;DHT22;9499;52.472;13.448;2022-09-27T10:27:50;13.00;99.90
18741;DHT22;9499;52.472;13.448;2022-09-27T10:30:26;13.00;99.90
18741;DHT22;9499;52.472;13.448;2022-09-27T10:32:56;13.00;99.90
18741;DHT22;9499;52.472;13.448;2022-09-27T10:35:41;12.90;99.90
18741;DHT22;9499;52.472;13.448;2022-09-27T10:38:21;13.00;99.90
18741;DHT22;9499;52.472;13.448;2022-09-27T10:40:49;13.10;99.90
18741;DHT22;9499;52.472;13.448;2022-09-27T10:43:28;13.20;99.90
18741;DHT22;9499;52.472;13.448;2022-09-27T10:46:02;13.20;99.90
18741;DHT22;9499;52.472;13.448;2022-09-27T10:48:28;13.30;99.90
18741;DHT22;9499;52.472;13.448;2022-09-27T10:50:58;13.40;99.90
18741;DHT22;9499;52.472;13.448;2022-09-27T10:53:27;13.60;99.90
18741;DHT22;9499;52.472;13.448;2022-09-27T10:55:55;13.90;99.90
18741;DHT22;9499;52.472;13.448;2022-09-27T10:58:25;14.00;99.90
18741;DHT22;9499;52.472;13.448;2022-09-27T11:00:57;14.00;99.90
18741;DHT22;9499;52.472;13.448;2022-09-27T11:03:26;14.10;99.90
18741;DHT22;9499;52.472;13.448;2022-09-27T11:05:54;14.20;99.90
18741;DHT22;9499;52.472;13.448;2022-09-27T11:08:29;14.20;99.90
18741;DHT22;9499;52.472;13.448;2022-09-27T11:11:02;14.20;99.90
18741;DHT22;9499;52.472;13.448;2022-09-27T11:13:31;14.20;99.90
18741;DHT22;9499;52.472;13.448;2022-09-27T11:16:12;14.10;99.90
18741;DHT22;9499;52.472;13.448;2022-09-27T11:18:49;14.00;99.90
18741;DHT22;9499;52.472;13.448;2022-09-27T11:21:24;14.00;99.90
18741;DHT22;9499;52.472;13.448;2022-09-27T11:24:04;14.00;99.90
18741;DHT22;9499;52.472;13.448;2022-09-27T11:26:43;14.10;99.90
18741;DHT22;9499;52.472;13.448;2022-09-27T11:29:23;14.10;99.90
18741;DHT22;9499;52.472;13.448;2022-09-27T11:32:02;14.00;99.90
18741;DHT22;9499;52.472;13.448;2022-09-27T11:34:42;14.00;99.90
18741;DHT22;9499;52.472;13.448;2022-09-27T11:37:18;13.90;99.90
18741;DHT22;9499;52.472;13.448;2022-09-27T11:40:04;13.90;99.90
18741;DHT22;9499;52.472;13.448;2022-09-27T11:42:55;13.90;99.90
18741;DHT22;9499;52.472;13.448;2022-09-27T11:45:31;13.90;99.90
18741;DHT22;9499;52.472;13.448;2022-09-27T11:48:10;13.80;99.90
18741;DHT22;9499;52.472;13.448;2022-09-27T11:51:00;13.70;99.90
18741;DHT22;9499;52.472;13.448;2022-09-27T11:53:38;13.60;99.90
18741;DHT22;9499;52.472;13.448;2022-09-27T11:56:19;13.20;99.90
18741;DHT22;9499;52.472;13.448;2022-09-27T11:58:58;12.40;99.90
18741;DHT22;9499;52.472;13.448;2022-09-27T12:01:37;11.90;99.90
18741;DHT22;9499;52.472;13.448;2022-09-27T12:04:24;11.50;99.90
18741;DHT22;9499;52.472;13.448;2022-09-27T12:06:59;11.30;99.90
18741;DHT22;9499;52.472;13.448;2022-09-27T12:09:32;11.20;99.90
18741;DHT22;9499;52.472;13.448;2022-09-27T12:12:03;11.20;99.90
18741;DHT22;9499;52.472;13.448;2022-09-27T12:14:34;11.10;99.90
18741;DHT22;9499;52.472;13.448;2022-09-27T12:17:03;11.00;99.90
18741;DHT22;9499;52.472;13.448;2022-09-27T12:19:34;11.00;99.90
18741;DHT22;9499;52.472;13.448;2022-09-27T12:22:03;11.00;99.90
18741;DHT22;9499;52.472;13.448;2022-09-27T12:24:31;11.00;99.90
18741;DHT22;9499;52.472;13.448;2022-09-27T12:27:01;11.00;99.90
18741;DHT22;9499;52.472;13.448;2022-09-27T12:29:33;11.00;99.90
18741;DHT22;9499;52.472;13.448;2022-09-27T12:32:04;11.10;99.90
18741;DHT22;9499;52.472;13.448;2022-09-27T12:34:37;11.20;99.90
18741;DHT22;9499;52.472;13.448;2022-09-27T12:37:11;11.30;99.90
18741;DHT22;9499;52.472;13.448;2022-09-27T12:39:46;11.50;99.90
18741;DHT22;9499;52.472;13.448;2022-09-27T12:42:20;11.60;99.90
18741;DHT22;9499;52.472;13.448;2022-09-27T12:44:48;11.70;99.90
18741;DHT22;9499;52.472;13.448;2022-09-27T12:47:26;11.70;99.90
18741;DHT22;9499;52.472;13.448;2022-09-27T12:50:03;11.80;99.90
18741;DHT22;9499;52.472;13.448;2022-09-27T12:52:35;11.80;99.90
18741;DHT22;9499;52.472;13.448;2022-09-27T12:55:30;11.90;99.90
18741;DHT22;9499;52.472;13.448;2022-09-27T12:58:30;12.00;99.90
18741;DHT22;9499;52.472;13.448;2022-09-27T13:01:08;12.10;99.90
18741;DHT22;9499;52.472;13.448;2022-09-27T13:03:50;12.20;99.90
18741;DHT22;9499;52.472;13.448;2022-09-27T13:06:47;12.20;99.90
18741;DHT22;9499;52.472;13.448;2022-09-27T13:09:47;12.20;99.90
18741;DHT22;9499;52.472;13.448;2022-09-27T13:12:18;12.20;99.90
18741;DHT22;9499;52.472;13.448;2022-09-27T13:14:57;12.20;99.90
18741;DHT22;9499;52.472;13.448;2022-09-27T13:17:52;12.20;99.90
18741;DHT22;9499;52.472;13.448;2022-09-27T13:20:50;12.20;99.90
18741;DHT22;9499;52.472;13.448;2022-09-27T13:26:45;12.10;99.90
18741;DHT22;9499;52.472;13.448;2022-09-27T13:29:30;12.10;99.90
18741;DHT22;9499;52.472;13.448;2022-09-27T13:32:17;12.10;99.90
18741;DHT22;9499;52.472;13.448;2022-09-27T13:34:45;12.10;99.90
18741;DHT22;9499;52.472;13.448;2022-09-27T13:37:44;12.30;99.90
18741;DHT22;9499;52.472;13.448;2022-09-27T13:40:24;12.50;99.90
18741;DHT22;9499;52.472;13.448;2022-09-27T13:43:04;12.80;99.90
18741;DHT22;9499;52.472;13.448;2022-09-27T13:45:38;12.90;99.90
18741;DHT22;9499;52.472;13.448;2022-09-27T13:48:13;12.90;99.90
18741;DHT22;9499;52.472;13.448;2022-09-27T13:50:47;12.90;99.90
18741;DHT22;9499;52.472;13.448;2022-09-27T13:53:23;12.90;99.90
18741;DHT22;9499;52.472;13.448;2022-09-27T13:55:51;12.90;99.90
18741;DHT22;9499;52.472;13.448;2022-09-27T13:58:32;13.10;99.90
18741;DHT22;9499;52.472;13.448;2022-09-27T14:01:02;13.10;99.90
18741;DHT22;9499;52.472;13.448;2022-09-27T14:03:33;13.10;99.90
18741;DHT22;9499;52.472;13.448;2022-09-27T14:06:06;13.00;99.90
18741;DHT22;9499;52.472;13.448;2022-09-27T14:08:37;13.00;99.90
18741;DHT22;9499;52.472;13.448;2022-09-27T14:11:11;12.90;99.90
18741;DHT22;9499;52.472;13.448;2022-09-27T14:13:40;12.80;99.90
18741;DHT22;9499;52.472;13.448;2022-09-27T14:16:11;12.70;99.90
18741;DHT22;9499;52.472;13.448;2022-09-27T14:18:46;12.70;99.90
18741;DHT22;9499;52.472;13.448;2022-09-27T14:21:18;12.60;99.90
18741;DHT22;9499;52.472;13.448;2022-09-27T14:23:46;12.50;99.90
18741;DHT22;9499;52.472;13.448;2022-09-27T14:26:21;12.50;99.90
18741;DHT22;9499;52.472;13.448;2022-09-27T14:28:48;12.50;99.90
18741;DHT22;9499;52.472;13.448;2022-09-27T14:31:21;12.50;99.90
18741;DHT22;9499;52.472;13.448;2022-09-27T14:33:50;12.60;99.90
18741;DHT22;9499;52.472;13.448;2022-09-27T14:36:31;12.60;99.90
18741;DHT22;9499;52.472;13.448;2022-09-27T14:39:21;12.60;99.90
18741;DHT22;9499;52.472;13.448;2022-09-27T14:41:48;12.60;99.90
18741;DHT22;9499;52.472;13.448;2022-09-27T14:44:17;12.70;99.90
18741;DHT22;9499;52.472;13.448;2022-09-27T14:46:46;12.70;99.90
18741;DHT22;9499;52.472;13.448;2022-09-27T14:49:19;12.70;99.90
18741;DHT22;9499;52.472;13.448;2022-09-27T14:51:50;12.60;99.90
18741;DHT22;9499;52.472;13.448;2022-09-27T14:54:20;12.60;99.90
18741;DHT22;9499;52.472;13.448;2022-09-27T14:56:47;12.60;99.90
18741;DHT22;9499;52.472;13.448;2022-09-27T14:59:15;12.50;99.90
18741;DHT22;9499;52.472;13.448;2022-09-27T15:01:47;12.60;99.90
18741;DHT22;9499;52.472;13.448;2022-09-27T15:04:14;12.60;99.90
18741;DHT22;9499;52.472;13.448;2022-09-27T15:06:42;12.60;99.90
18741;DHT22;9499;52.472;13.448;2022-09-27T15:09:12;12.50;99.90
18741;DHT22;9499;52.472;13.448;2022-09-27T15:11:39;12.60;99.90
18741;DHT22;9499;52.472;13.448;2022-09-27T15:14:12;12.60;99.90
18741;DHT22;9499;52.472;13.448;2022-09-27T15:16:39;12.60;99.90
18741;DHT22;9499;52.472;13.448;2022-09-27T15:19:13;12.60;99.90
18741;DHT22;9499;52.472;13.448;2022-09-27T15:21:43;12.60;99.90
18741;DHT22;9499;52.472;13.448;2022-09-27T15:24:37;12.60;99.90
18741;DHT22;9499;52.472;13.448;2022-09-27T15:27:12;12.50;99.90
18741;DHT22;9499;52.472;13.448;2022-09-27T15:29:39;12.40;99.90
18741;DHT22;9499;52.472;13.448;2022-09-27T15:32:06;12.40;99.90
18741;DHT22;9499;52.472;13.448;2022-09-27T15:34:37;12.40;99.90
18741;DHT22;9499;52.472;13.448;2022-09-27T15:37:05;12.40;99.90
18741;DHT22;9499;52.472;13.448;2022-09-27T15:39:33;12.40;99.90
18741;DHT22;9499;52.472;13.448;2022-09-27T15:42:06;12.30;99.90
18741;DHT22;9499;52.472;13.448;2022-09-27T15:44:43;12.20;99.90
18741;DHT22;9499;52.472;13.448;2022-09-27T15:47:41;12.20;99.90
18741;DHT22;9499;52.472;13.448;2022-09-27T15:53:42;12.10;99.90
18741;DHT22;9499;52.472;13.448;2022-09-27T15:56:13;12.10;99.90
18741;DHT22;9499;52.472;13.448;2022-09-27T15:58:40;12.00;99.90
18741;DHT22;9499;52.472;13.448;2022-09-27T16:01:18;11.90;99.90
18741;DHT22;9499;52.472;13.448;2022-09-27T16:03:46;11.90;99.90
18741;DHT22;9499;52.472;13.448;2022-09-27T16:06:13;11.90;99.90